sensor_id;sensor_type;location;lat;lon;timestamp;P1;durP1;ratioP1;P2;durP2;ratioP2
4577;SDS011;2301;47.354;8.528;2023-08-20T00:01:25;5.90;;;2.80;;
4577;SDS011;2301;47.354;8.528;2023-08-20T00:03:53;5.90;;;3.17;;
4577;SDS011;2301;47.354;8.528;2023-08-20T00:06:21;3.50;;;2.53;;
4577;SDS011;2301;47.354;8.528;2023-08-20T00:08:49;8.00;;;2.70;;
4577;SDS011;2301;47.354;8.528;2023-08-20T00:11:17;5.30;;;3.03;;
4577;SDS011;2301;47.354;8.528;2023-08-20T00:13:45;4.20;;;3.03;;
4577;SDS011;2301;47.354;8.528;2023-08-20T00:16:12;6.37;;;3.20;;
4577;SDS011;2301;47.354;8.528;2023-08-20T00:18:40;6.10;;;2.90;;
4577;SDS011;2301;47.354;8.528;2023-08-20T00:21:07;5.00;;;2.73;;
4577;SDS011;2301;47.354;8.528;2023-08-20T00:23:35;5.20;;;3.57;;
4577;SDS011;2301;47.354;8.528;2023-08-20T00:26:03;4.33;;;2.60;;
4577;SDS011;2301;47.354;8.528;2023-08-20T00:28:30;5.40;;;2.70;;
4577;SDS011;2301;47.354;8.528;2023-08-20T00:31:00;3.70;;;2.80;;
4577;SDS011;2301;47.354;8.528;2023-08-20T00:33:27;5.23;;;3.17;;
4577;SDS011;2301;47.354;8.528;2023-08-20T00:35:54;4.20;;;2.50;;
4577;SDS011;2301;47.354;8.528;2023-08-20T00:38:21;5.53;;;3.10;;
4577;SDS011;2301;47.354;8.528;2023-08-20T00:40:48;4.60;;;2.70;;
4577;SDS011;2301;47.354;8.528;2023-08-20T00:43:15;6.17;;;3.47;;
4577;SDS011;2301;47.354;8.528;2023-08-20T00:45:42;4.80;;;3.30;;
4577;SDS011;2301;47.354;8.528;2023-08-20T00:48:10;6.13;;;3.37;;
4577;SDS011;2301;47.354;8.528;2023-08-20T00:50:38;6.87;;;2.97;;
4577;SDS011;2301;47.354;8.528;2023-08-20T00:53:05;5.60;;;3.00;;
4577;SDS011;2301;47.354;8.528;2023-08-20T00:55:34;6.17;;;2.90;;
4577;SDS011;2301;47.354;8.528;2023-08-20T00:58:04;5.73;;;3.00;;
4577;SDS011;2301;47.354;8.528;2023-08-20T01:00:34;4.43;;;2.90;;
4577;SDS011;2301;47.354;8.528;2023-08-20T01:03:04;3.90;;;3.00;;
4577;SDS011;2301;47.354;8.528;2023-08-20T01:05:37;7.20;;;3.13;;
4577;SDS011;2301;47.354;8.528;2023-08-20T01:08:18;5.47;;;2.87;;
4577;SDS011;2301;47.354;8.528;2023-08-20T01:10:55;5.50;;;2.90;;
4577;SDS011;2301;47.354;8.528;2023-08-20T01:13:29;3.33;;;2.73;;
4577;SDS011;2301;47.354;8.528;2023-08-20T01:15:58;6.53;;;3.00;;
4577;SDS011;2301;47.354;8.528;2023-08-20T01:18:27;5.70;;;3.20;;
4577;SDS011;2301;47.354;8.528;2023-08-20T01:20:58;5.57;;;2.90;;
4577;SDS011;2301;47.354;8.528;2023-08-20T01:23:33;4.90;;;2.80;;
4577;SDS011;2301;47.354;8.528;2023-08-20T01:26:35;3.93;;;2.90;;
4577;SDS011;2301;47.354;8.528;2023-08-20T01:29:16;5.60;;;2.90;;
4577;SDS011;2301;47.354;8.528;2023-08-20T01:31:43;4.90;;;3.30;;
4577;SDS011;2301;47.354;8.528;2023-08-20T01:34:12;6.90;;;3.00;;
4577;SDS011;2301;47.354;8.528;2023-08-20T01:36:39;8.60;;;3.60;;
4577;SDS011;2301;47.354;8.528;2023-08-20T01:39:06;5.60;;;3.10;;
4577;SDS011;2301;47.354;8.528;2023-08-20T01:41:33;5.27;;;2.67;;
4577;SDS011;2301;47.354;8.528;2023-08-20T01:44:00;9.10;;;2.87;;
4577;SDS011;2301;47.354;8.528;2023-08-20T01:46:30;3.93;;;2.80;;
4577;SDS011;2301;47.354;8.528;2023-08-20T01:48:59;5.23;;;2.90;;
4577;SDS011;2301;47.354;8.528;2023-08-20T01:51:28;4.43;;;2.67;;
4577;SDS011;2301;47.354;8.528;2023-08-20T01:53:58;5.90;;;3.27;;
4577;SDS011;2301;47.354;8.528;2023-08-20T01:56:28;7.23;;;2.67;;
4577;SDS011;2301;47.354;8.528;2023-08-20T01:58:57;5.77;;;3.00;;
4577;SDS011;2301;47.354;8.528;2023-08-20T02:01:29;4.07;;;3.03;;
4577;SDS011;2301;47.354;8.528;2023-08-20T02:03:58;6.37;;;3.10;;
4577;SDS011;2301;47.354;8.528;2023-08-20T02:06:28;5.50;;;2.93;;
4577;SDS011;2301;47.354;8.528;2023-08-20T02:08:57;7.37;;;2.83;;
4577;SDS011;2301;47.354;8.528;2023-08-20T02:11:27;5.90;;;2.97;;
4577;SDS011;2301;47.354;8.528;2023-08-20T02:14:00;6.77;;;2.90;;
4577;SDS011;2301;47.354;8.528;2023-08-20T02:16:32;8.23;;;3.20;;
4577;SDS011;2301;47.354;8.528;2023-08-20T02:19:03;4.70;;;2.97;;
4577;SDS011;2301;47.354;8.528;2023-08-20T02:21:32;5.30;;;2.97;;
4577;SDS011;2301;47.354;8.528;2023-08-20T02:24:03;6.50;;;2.77;;
4577;SDS011;2301;47.354;8.528;2023-08-20T02:26:33;4.30;;;2.70;;
4577;SDS011;2301;47.354;8.528;2023-08-20T02:29:03;4.60;;;2.97;;
4577;SDS011;2301;47.354;8.528;2023-08-20T02:31:34;4.97;;;2.80;;
4577;SDS011;2301;47.354;8.528;2023-08-20T02:34:04;4.20;;;2.67;;
4577;SDS011;2301;47.354;8.528;2023-08-20T02:36:33;5.10;;;2.70;;
4577;SDS011;2301;47.354;8.528;2023-08-20T02:39:03;6.83;;;3.37;;
4577;SDS011;2301;47.354;8.528;2023-08-20T02:41:33;4.63;;;3.00;;
4577;SDS011;2301;47.354;8.528;2023-08-20T02:44:03;4.93;;;2.87;;
4577;SDS011;2301;47.354;8.528;2023-08-20T02:46:34;6.70;;;2.83;;
4577;SDS011;2301;47.354;8.528;2023-08-20T02:49:04;4.40;;;3.03;;
4577;SDS011;2301;47.354;8.528;2023-08-20T02:51:34;4.27;;;2.40;;
4577;SDS011;2301;47.354;8.528;2023-08-20T02:54:03;8.87;;;2.90;;
4577;SDS011;2301;47.354;8.528;2023-08-20T02:56:33;3.50;;;2.50;;
4577;SDS011;2301;47.354;8.528;2023-08-20T02:59:03;7.87;;;3.07;;
4577;SDS011;2301;47.354;8.528;2023-08-20T03:01:35;4.13;;;2.60;;
4577;SDS011;2301;47.354;8.528;2023-08-20T03:04:04;4.13;;;2.70;;
4577;SDS011;2301;47.354;8.528;2023-08-20T03:06:32;6.30;;;3.40;;
4577;SDS011;2301;47.354;8.528;2023-08-20T03:08:58;5.83;;;2.70;;
4577;SDS011;2301;47.354;8.528;2023-08-20T03:11:25;3.67;;;2.90;;
4577;SDS011;2301;47.354;8.528;2023-08-20T03:13:52;4.30;;;2.67;;
4577;SDS011;2301;47.354;8.528;2023-08-20T03:16:19;4.20;;;2.77;;
4577;SDS011;2301;47.354;8.528;2023-08-20T03:18:47;6.00;;;2.87;;
4577;SDS011;2301;47.354;8.528;2023-08-20T03:21:15;3.17;;;2.87;;
4577;SDS011;2301;47.354;8.528;2023-08-20T03:23:44;4.27;;;2.90;;
4577;SDS011;2301;47.354;8.528;2023-08-20T03:26:14;5.40;;;3.10;;
4577;SDS011;2301;47.354;8.528;2023-08-20T03:28:44;4.30;;;2.60;;
4577;SDS011;2301;47.354;8.528;2023-08-20T03:31:13;4.60;;;2.73;;
4577;SDS011;2301;47.354;8.528;2023-08-20T03:33:43;7.87;;;2.90;;
4577;SDS011;2301;47.354;8.528;2023-08-20T03:36:11;6.23;;;3.00;;
4577;SDS011;2301;47.354;8.528;2023-08-20T03:38:38;4.47;;;3.00;;
4577;SDS011;2301;47.354;8.528;2023-08-20T03:41:05;5.37;;;2.87;;
4577;SDS011;2301;47.354;8.528;2023-08-20T03:43:32;4.50;;;2.60;;
4577;SDS011;2301;47.354;8.528;2023-08-20T03:45:59;3.80;;;3.20;;
4577;SDS011;2301;47.354;8.528;2023-08-20T03:48:27;4.70;;;3.33;;
4577;SDS011;2301;47.354;8.528;2023-08-20T03:50:54;5.80;;;2.83;;
4577;SDS011;2301;47.354;8.528;2023-08-20T03:53:23;7.50;;;3.10;;
4577;SDS011;2301;47.354;8.528;2023-08-20T03:55:50;5.03;;;3.30;;
4577;SDS011;2301;47.354;8.528;2023-08-20T03:58:17;8.07;;;3.10;;
4577;SDS011;2301;47.354;8.528;2023-08-20T04:00:44;4.10;;;2.63;;
4577;SDS011;2301;47.354;8.528;2023-08-20T04:03:11;5.47;;;2.97;;
4577;SDS011;2301;47.354;8.528;2023-08-20T04:05:39;5.50;;;2.93;;
4577;SDS011;2301;47.354;8.528;2023-08-20T04:08:06;12.03;;;3.50;;
4577;SDS011;2301;47.354;8.528;2023-08-20T04:10:34;7.33;;;3.03;;
4577;SDS011;2301;47.354;8.528;2023-08-20T04:13:01;6.33;;;3.17;;
4577;SDS011;2301;47.354;8.528;2023-08-20T04:15:28;6.27;;;3.10;;
4577;SDS011;2301;47.354;8.528;2023-08-20T04:17:55;6.40;;;3.03;;
4577;SDS011;2301;47.354;8.528;2023-08-20T04:20:22;5.73;;;3.20;;
4577;SDS011;2301;47.354;8.528;2023-08-20T04:22:49;5.93;;;3.03;;
4577;SDS011;2301;47.354;8.528;2023-08-20T04:25:16;5.43;;;3.07;;
4577;SDS011;2301;47.354;8.528;2023-08-20T04:27:44;9.07;;;3.57;;
4577;SDS011;2301;47.354;8.528;2023-08-20T04:30:11;9.90;;;3.50;;
4577;SDS011;2301;47.354;8.528;2023-08-20T04:32:38;13.17;;;3.47;;
4577;SDS011;2301;47.354;8.528;2023-08-20T04:35:05;7.93;;;3.03;;
4577;SDS011;2301;47.354;8.528;2023-08-20T04:37:33;6.37;;;3.57;;
4577;SDS011;2301;47.354;8.528;2023-08-20T04:39:59;6.43;;;3.20;;
4577;SDS011;2301;47.354;8.528;2023-08-20T04:42:29;7.50;;;2.90;;
4577;SDS011;2301;47.354;8.528;2023-08-20T04:44:57;9.10;;;3.47;;
4577;SDS011;2301;47.354;8.528;2023-08-20T04:47:24;3.50;;;2.90;;
4577;SDS011;2301;47.354;8.528;2023-08-20T04:49:51;7.60;;;3.67;;
4577;SDS011;2301;47.354;8.528;2023-08-20T04:52:18;6.20;;;3.10;;
4577;SDS011;2301;47.354;8.528;2023-08-20T04:54:46;10.10;;;3.07;;
4577;SDS011;2301;47.354;8.528;2023-08-20T04:57:13;5.13;;;3.07;;
4577;SDS011;2301;47.354;8.528;2023-08-20T04:59:41;4.43;;;3.20;;
4577;SDS011;2301;47.354;8.528;2023-08-20T05:02:11;4.53;;;2.63;;
4577;SDS011;2301;47.354;8.528;2023-08-20T05:04:38;5.37;;;3.03;;
4577;SDS011;2301;47.354;8.528;2023-08-20T05:07:05;5.80;;;3.33;;
4577;SDS011;2301;47.354;8.528;2023-08-20T05:09:32;4.40;;;2.90;;
4577;SDS011;2301;47.354;8.528;2023-08-20T05:11:59;4.40;;;2.77;;
4577;SDS011;2301;47.354;8.528;2023-08-20T05:14:27;5.00;;;3.00;;
4577;SDS011;2301;47.354;8.528;2023-08-20T05:16:54;6.40;;;3.40;;
4577;SDS011;2301;47.354;8.528;2023-08-20T05:19:23;8.13;;;3.00;;
4577;SDS011;2301;47.354;8.528;2023-08-20T05:21:50;6.93;;;3.53;;
4577;SDS011;2301;47.354;8.528;2023-08-20T05:24:17;6.10;;;3.20;;
4577;SDS011;2301;47.354;8.528;2023-08-20T05:26:44;5.67;;;3.10;;
4577;SDS011;2301;47.354;8.528;2023-08-20T05:29:11;5.97;;;2.90;;
4577;SDS011;2301;47.354;8.528;2023-08-20T05:31:38;5.40;;;3.27;;
4577;SDS011;2301;47.354;8.528;2023-08-20T05:34:05;6.80;;;3.40;;
4577;SDS011;2301;47.354;8.528;2023-08-20T05:36:33;3.33;;;2.40;;
4577;SDS011;2301;47.354;8.528;2023-08-20T05:39:00;5.23;;;3.07;;
4577;SDS011;2301;47.354;8.528;2023-08-20T05:41:27;6.30;;;2.93;;
4577;SDS011;2301;47.354;8.528;2023-08-20T05:43:54;6.80;;;3.30;;
4577;SDS011;2301;47.354;8.528;2023-08-20T05:46:21;4.60;;;3.10;;
4577;SDS011;2301;47.354;8.528;2023-08-20T05:48:47;4.27;;;2.87;;
4577;SDS011;2301;47.354;8.528;2023-08-20T05:51:14;8.83;;;3.70;;
4577;SDS011;2301;47.354;8.528;2023-08-20T05:53:43;4.90;;;3.07;;
4577;SDS011;2301;47.354;8.528;2023-08-20T05:56:09;3.70;;;3.00;;
4577;SDS011;2301;47.354;8.528;2023-08-20T05:58:36;5.70;;;3.20;;
4577;SDS011;2301;47.354;8.528;2023-08-20T06:01:03;5.30;;;2.87;;
4577;SDS011;2301;47.354;8.528;2023-08-20T06:03:30;6.40;;;3.30;;
4577;SDS011;2301;47.354;8.528;2023-08-20T06:05:57;8.80;;;3.47;;
4577;SDS011;2301;47.354;8.528;2023-08-20T06:08:24;6.93;;;3.30;;
4577;SDS011;2301;47.354;8.528;2023-08-20T06:10:52;5.10;;;3.30;;
4577;SDS011;2301;47.354;8.528;2023-08-20T06:13:20;5.13;;;3.87;;
4577;SDS011;2301;47.354;8.528;2023-08-20T06:15:49;6.10;;;3.30;;
4577;SDS011;2301;47.354;8.528;2023-08-20T06:18:18;4.40;;;2.90;;
4577;SDS011;2301;47.354;8.528;2023-08-20T06:20:45;12.50;;;3.63;;
4577;SDS011;2301;47.354;8.528;2023-08-20T06:23:12;7.17;;;3.23;;
4577;SDS011;2301;47.354;8.528;2023-08-20T06:25:39;5.83;;;3.47;;
4577;SDS011;2301;47.354;8.528;2023-08-20T06:28:08;5.90;;;3.20;;
4577;SDS011;2301;47.354;8.528;2023-08-20T06:30:35;8.03;;;3.63;;
4577;SDS011;2301;47.354;8.528;2023-08-20T06:33:02;5.57;;;3.40;;
4577;SDS011;2301;47.354;8.528;2023-08-20T06:35:29;6.80;;;3.20;;
4577;SDS011;2301;47.354;8.528;2023-08-20T06:37:56;5.23;;;3.60;;
4577;SDS011;2301;47.354;8.528;2023-08-20T06:40:23;6.73;;;3.73;;
4577;SDS011;2301;47.354;8.528;2023-08-20T06:42:50;4.70;;;3.27;;
4577;SDS011;2301;47.354;8.528;2023-08-20T06:45:18;9.50;;;3.63;;
4577;SDS011;2301;47.354;8.528;2023-08-20T06:47:45;5.57;;;3.13;;
4577;SDS011;2301;47.354;8.528;2023-08-20T06:50:12;5.47;;;3.70;;
4577;SDS011;2301;47.354;8.528;2023-08-20T06:52:39;5.80;;;3.20;;
4577;SDS011;2301;47.354;8.528;2023-08-20T06:55:06;4.93;;;3.20;;
4577;SDS011;2301;47.354;8.528;2023-08-20T06:57:34;4.60;;;3.30;;
4577;SDS011;2301;47.354;8.528;2023-08-20T07:00:04;5.10;;;3.40;;
4577;SDS011;2301;47.354;8.528;2023-08-20T07:02:36;5.57;;;3.00;;
4577;SDS011;2301;47.354;8.528;2023-08-20T07:05:05;4.80;;;3.10;;
4577;SDS011;2301;47.354;8.528;2023-08-20T07:07:35;5.33;;;2.87;;
4577;SDS011;2301;47.354;8.528;2023-08-20T07:10:05;5.50;;;3.07;;
4577;SDS011;2301;47.354;8.528;2023-08-20T07:12:36;8.87;;;3.23;;
4577;SDS011;2301;47.354;8.528;2023-08-20T07:15:05;5.00;;;2.93;;
4577;SDS011;2301;47.354;8.528;2023-08-20T07:17:33;9.20;;;3.70;;
4577;SDS011;2301;47.354;8.528;2023-08-20T07:20:01;5.40;;;3.30;;
4577;SDS011;2301;47.354;8.528;2023-08-20T07:22:29;5.03;;;3.33;;
4577;SDS011;2301;47.354;8.528;2023-08-20T07:24:56;8.53;;;2.90;;
4577;SDS011;2301;47.354;8.528;2023-08-20T07:27:23;8.80;;;3.17;;
4577;SDS011;2301;47.354;8.528;2023-08-20T07:29:49;5.20;;;3.10;;
4577;SDS011;2301;47.354;8.528;2023-08-20T07:32:16;6.27;;;3.50;;
4577;SDS011;2301;47.354;8.528;2023-08-20T07:34:45;5.10;;;3.03;;
4577;SDS011;2301;47.354;8.528;2023-08-20T07:37:11;3.87;;;2.97;;
4577;SDS011;2301;47.354;8.528;2023-08-20T07:39:38;5.13;;;2.70;;
4577;SDS011;2301;47.354;8.528;2023-08-20T07:42:06;3.40;;;2.63;;
4577;SDS011;2301;47.354;8.528;2023-08-20T07:44:34;4.50;;;2.40;;
4577;SDS011;2301;47.354;8.528;2023-08-20T07:47:03;7.50;;;3.07;;
4577;SDS011;2301;47.354;8.528;2023-08-20T07:49:33;6.00;;;3.03;;
4577;SDS011;2301;47.354;8.528;2023-08-20T07:52:05;5.57;;;2.97;;
4577;SDS011;2301;47.354;8.528;2023-08-20T07:54:34;5.90;;;2.80;;
4577;SDS011;2301;47.354;8.528;2023-08-20T07:57:04;3.50;;;2.83;;
4577;SDS011;2301;47.354;8.528;2023-08-20T07:59:33;3.70;;;2.30;;
4577;SDS011;2301;47.354;8.528;2023-08-20T08:02:03;4.40;;;2.80;;
4577;SDS011;2301;47.354;8.528;2023-08-20T08:04:33;8.77;;;2.80;;
4577;SDS011;2301;47.354;8.528;2023-08-20T08:07:06;4.70;;;2.83;;
4577;SDS011;2301;47.354;8.528;2023-08-20T08:09:37;7.40;;;2.63;;
4577;SDS011;2301;47.354;8.528;2023-08-20T08:12:06;5.33;;;2.90;;
4577;SDS011;2301;47.354;8.528;2023-08-20T08:14:36;5.40;;;2.70;;
4577;SDS011;2301;47.354;8.528;2023-08-20T08:17:06;8.17;;;2.50;;
4577;SDS011;2301;47.354;8.528;2023-08-20T08:19:35;4.07;;;2.63;;
4577;SDS011;2301;47.354;8.528;2023-08-20T08:22:06;4.90;;;2.50;;
4577;SDS011;2301;47.354;8.528;2023-08-20T08:24:34;6.90;;;2.77;;
4577;SDS011;2301;47.354;8.528;2023-08-20T08:27:01;2.93;;;2.17;;
4577;SDS011;2301;47.354;8.528;2023-08-20T08:29:28;4.60;;;2.23;;
4577;SDS011;2301;47.354;8.528;2023-08-20T08:31:55;5.20;;;2.40;;
4577;SDS011;2301;47.354;8.528;2023-08-20T08:34:21;5.43;;;2.80;;
4577;SDS011;2301;47.354;8.528;2023-08-20T08:36:48;6.73;;;2.77;;
4577;SDS011;2301;47.354;8.528;2023-08-20T08:39:17;4.00;;;2.30;;
4577;SDS011;2301;47.354;8.528;2023-08-20T08:41:44;3.53;;;2.50;;
4577;SDS011;2301;47.354;8.528;2023-08-20T08:44:17;3.30;;;2.50;;
4577;SDS011;2301;47.354;8.528;2023-08-20T08:46:43;5.40;;;2.77;;
4577;SDS011;2301;47.354;8.528;2023-08-20T08:49:13;3.60;;;2.40;;
4577;SDS011;2301;47.354;8.528;2023-08-20T08:51:40;2.70;;;2.33;;
4577;SDS011;2301;47.354;8.528;2023-08-20T08:54:10;4.43;;;2.60;;
4577;SDS011;2301;47.354;8.528;2023-08-20T08:56:41;4.60;;;2.47;;
4577;SDS011;2301;47.354;8.528;2023-08-20T08:59:08;2.77;;;2.07;;
4577;SDS011;2301;47.354;8.528;2023-08-20T09:01:37;4.87;;;2.50;;
4577;SDS011;2301;47.354;8.528;2023-08-20T09:04:05;5.67;;;2.40;;
4577;SDS011;2301;47.354;8.528;2023-08-20T09:06:43;4.63;;;2.40;;
4577;SDS011;2301;47.354;8.528;2023-08-20T09:09:11;4.17;;;2.40;;
4577;SDS011;2301;47.354;8.528;2023-08-20T09:11:43;2.90;;;2.10;;
4577;SDS011;2301;47.354;8.528;2023-08-20T09:14:20;3.10;;;2.67;;
4577;SDS011;2301;47.354;8.528;2023-08-20T09:16:54;3.33;;;2.40;;
4577;SDS011;2301;47.354;8.528;2023-08-20T09:19:28;4.43;;;2.43;;
4577;SDS011;2301;47.354;8.528;2023-08-20T09:22:03;5.03;;;2.20;;
4577;SDS011;2301;47.354;8.528;2023-08-20T09:24:33;3.80;;;2.40;;
4577;SDS011;2301;47.354;8.528;2023-08-20T09:27:06;5.73;;;2.70;;
4577;SDS011;2301;47.354;8.528;2023-08-20T09:29:33;3.37;;;2.23;;
4577;SDS011;2301;47.354;8.528;2023-08-20T09:32:09;3.57;;;2.80;;
4577;SDS011;2301;47.354;8.528;2023-08-20T09:34:40;1.93;;;1.73;;
4577;SDS011;2301;47.354;8.528;2023-08-20T09:37:07;3.33;;;2.10;;
4577;SDS011;2301;47.354;8.528;2023-08-20T09:39:35;3.87;;;2.50;;
4577;SDS011;2301;47.354;8.528;2023-08-20T09:42:03;2.80;;;2.03;;
4577;SDS011;2301;47.354;8.528;2023-08-20T09:44:32;3.67;;;2.20;;
4577;SDS011;2301;47.354;8.528;2023-08-20T09:47:01;4.87;;;2.40;;
4577;SDS011;2301;47.354;8.528;2023-08-20T09:49:30;3.20;;;2.37;;
4577;SDS011;2301;47.354;8.528;2023-08-20T09:52:03;4.67;;;2.43;;
4577;SDS011;2301;47.354;8.528;2023-08-20T09:54:35;3.27;;;2.70;;
4577;SDS011;2301;47.354;8.528;2023-08-20T09:57:19;2.70;;;1.97;;
4577;SDS011;2301;47.354;8.528;2023-08-20T09:59:52;10.57;;;2.30;;
4577;SDS011;2301;47.354;8.528;2023-08-20T10:02:20;3.00;;;2.23;;
4577;SDS011;2301;47.354;8.528;2023-08-20T10:04:47;2.80;;;2.23;;
4577;SDS011;2301;47.354;8.528;2023-08-20T10:07:15;3.67;;;2.37;;
4577;SDS011;2301;47.354;8.528;2023-08-20T10:09:42;4.47;;;2.47;;
4577;SDS011;2301;47.354;8.528;2023-08-20T10:12:11;4.73;;;2.33;;
4577;SDS011;2301;47.354;8.528;2023-08-20T10:14:40;2.33;;;2.23;;
4577;SDS011;2301;47.354;8.528;2023-08-20T10:17:07;3.07;;;2.13;;
4577;SDS011;2301;47.354;8.528;2023-08-20T10:19:35;2.63;;;2.07;;
4577;SDS011;2301;47.354;8.528;2023-08-20T10:22:03;2.43;;;2.23;;
4577;SDS011;2301;47.354;8.528;2023-08-20T10:24:39;4.40;;;2.20;;
4577;SDS011;2301;47.354;8.528;2023-08-20T10:27:07;2.57;;;2.00;;
4577;SDS011;2301;47.354;8.528;2023-08-20T10:29:36;7.80;;;3.00;;
4577;SDS011;2301;47.354;8.528;2023-08-20T10:32:08;6.20;;;2.47;;
4577;SDS011;2301;47.354;8.528;2023-08-20T10:34:36;5.77;;;2.70;;
4577;SDS011;2301;47.354;8.528;2023-08-20T10:37:12;3.20;;;2.03;;
4577;SDS011;2301;47.354;8.528;2023-08-20T10:39:40;3.10;;;2.10;;
4577;SDS011;2301;47.354;8.528;2023-08-20T10:42:09;3.10;;;2.40;;
4577;SDS011;2301;47.354;8.528;2023-08-20T10:47:42;3.53;;;2.30;;
4577;SDS011;2301;47.354;8.528;2023-08-20T10:50:15;2.80;;;2.50;;
4577;SDS011;2301;47.354;8.528;2023-08-20T10:52:46;4.77;;;2.43;;
4577;SDS011;2301;47.354;8.528;2023-08-20T10:55:14;5.10;;;2.33;;
4577;SDS011;2301;47.354;8.528;2023-08-20T10:57:42;10.67;;;2.67;;
4577;SDS011;2301;47.354;8.528;2023-08-20T11:00:14;2.87;;;2.27;;
4577;SDS011;2301;47.354;8.528;2023-08-20T11:02:42;6.53;;;2.80;;
4577;SDS011;2301;47.354;8.528;2023-08-20T11:05:18;7.80;;;2.73;;
4577;SDS011;2301;47.354;8.528;2023-08-20T11:07:48;3.87;;;2.43;;
4577;SDS011;2301;47.354;8.528;2023-08-20T11:10:18;5.00;;;2.47;;
4577;SDS011;2301;47.354;8.528;2023-08-20T11:12:48;6.00;;;2.27;;
4577;SDS011;2301;47.354;8.528;2023-08-20T11:15:17;4.90;;;2.60;;
4577;SDS011;2301;47.354;8.528;2023-08-20T11:17:46;3.57;;;2.23;;
4577;SDS011;2301;47.354;8.528;2023-08-20T11:20:14;4.30;;;1.97;;
4577;SDS011;2301;47.354;8.528;2023-08-20T11:22:43;7.23;;;2.50;;
4577;SDS011;2301;47.354;8.528;2023-08-20T11:25:15;6.40;;;2.17;;
4577;SDS011;2301;47.354;8.528;2023-08-20T11:27:45;6.93;;;2.40;;
4577;SDS011;2301;47.354;8.528;2023-08-20T11:30:14;3.43;;;2.03;;
4577;SDS011;2301;47.354;8.528;2023-08-20T11:32:43;5.43;;;2.50;;
4577;SDS011;2301;47.354;8.528;2023-08-20T11:35:11;3.17;;;2.23;;
4577;SDS011;2301;47.354;8.528;2023-08-20T11:37:40;4.33;;;2.23;;
4577;SDS011;2301;47.354;8.528;2023-08-20T11:40:10;3.60;;;2.30;;
4577;SDS011;2301;47.354;8.528;2023-08-20T11:42:40;2.10;;;1.80;;
4577;SDS011;2301;47.354;8.528;2023-08-20T11:45:10;4.03;;;2.17;;
4577;SDS011;2301;47.354;8.528;2023-08-20T11:47:42;4.13;;;2.03;;
4577;SDS011;2301;47.354;8.528;2023-08-20T11:50:12;4.00;;;2.70;;
4577;SDS011;2301;47.354;8.528;2023-08-20T11:52:41;2.67;;;2.00;;
4577;SDS011;2301;47.354;8.528;2023-08-20T11:55:07;3.37;;;1.80;;
4577;SDS011;2301;47.354;8.528;2023-08-20T11:57:35;2.83;;;1.80;;
4577;SDS011;2301;47.354;8.528;2023-08-20T12:00:02;2.70;;;2.17;;
4577;SDS011;2301;47.354;8.528;2023-08-20T12:02:33;2.50;;;1.80;;
4577;SDS011;2301;47.354;8.528;2023-08-20T12:05:02;2.67;;;1.90;;
4577;SDS011;2301;47.354;8.528;2023-08-20T12:07:29;2.60;;;1.83;;
4577;SDS011;2301;47.354;8.528;2023-08-20T12:09:56;3.27;;;2.00;;
4577;SDS011;2301;47.354;8.528;2023-08-20T12:12:23;4.17;;;2.37;;
4577;SDS011;2301;47.354;8.528;2023-08-20T12:14:50;2.50;;;2.20;;
4577;SDS011;2301;47.354;8.528;2023-08-20T12:17:17;5.60;;;2.07;;
4577;SDS011;2301;47.354;8.528;2023-08-20T12:19:44;3.03;;;1.90;;
4577;SDS011;2301;47.354;8.528;2023-08-20T12:22:13;2.50;;;2.00;;
4577;SDS011;2301;47.354;8.528;2023-08-20T12:24:40;3.13;;;2.37;;
4577;SDS011;2301;47.354;8.528;2023-08-20T12:27:07;5.30;;;2.47;;
4577;SDS011;2301;47.354;8.528;2023-08-20T12:29:34;7.23;;;2.60;;
4577;SDS011;2301;47.354;8.528;2023-08-20T12:32:01;3.80;;;2.37;;
4577;SDS011;2301;47.354;8.528;2023-08-20T12:34:32;8.20;;;2.13;;
4577;SDS011;2301;47.354;8.528;2023-08-20T12:36:59;3.77;;;2.50;;
4577;SDS011;2301;47.354;8.528;2023-08-20T12:39:28;3.83;;;2.20;;
4577;SDS011;2301;47.354;8.528;2023-08-20T12:41:55;2.90;;;2.60;;
4577;SDS011;2301;47.354;8.528;2023-08-20T12:44:22;4.33;;;2.60;;
4577;SDS011;2301;47.354;8.528;2023-08-20T12:46:49;5.60;;;2.10;;
4577;SDS011;2301;47.354;8.528;2023-08-20T12:49:16;4.80;;;2.40;;
4577;SDS011;2301;47.354;8.528;2023-08-20T12:51:43;2.50;;;2.27;;
4577;SDS011;2301;47.354;8.528;2023-08-20T12:54:10;4.53;;;2.50;;
4577;SDS011;2301;47.354;8.528;2023-08-20T12:56:39;5.60;;;2.47;;
4577;SDS011;2301;47.354;8.528;2023-08-20T12:59:09;3.40;;;2.50;;
4577;SDS011;2301;47.354;8.528;2023-08-20T13:01:36;3.67;;;2.53;;
4577;SDS011;2301;47.354;8.528;2023-08-20T13:04:03;2.40;;;2.20;;
4577;SDS011;2301;47.354;8.528;2023-08-20T13:06:30;3.23;;;2.20;;
4577;SDS011;2301;47.354;8.528;2023-08-20T13:08:58;3.73;;;2.37;;
4577;SDS011;2301;47.354;8.528;2023-08-20T13:11:25;3.83;;;2.20;;
4577;SDS011;2301;47.354;8.528;2023-08-20T13:13:57;5.00;;;2.50;;
4577;SDS011;2301;47.354;8.528;2023-08-20T13:16:25;5.67;;;2.50;;
4577;SDS011;2301;47.354;8.528;2023-08-20T13:18:52;4.43;;;2.03;;
4577;SDS011;2301;47.354;8.528;2023-08-20T13:21:19;3.47;;;2.10;;
4577;SDS011;2301;47.354;8.528;2023-08-20T13:23:46;3.20;;;2.10;;
4577;SDS011;2301;47.354;8.528;2023-08-20T13:26:13;9.10;;;2.33;;
4577;SDS011;2301;47.354;8.528;2023-08-20T13:28:40;3.67;;;2.23;;
4577;SDS011;2301;47.354;8.528;2023-08-20T13:31:09;5.23;;;2.70;;
4577;SDS011;2301;47.354;8.528;2023-08-20T13:33:36;3.73;;;2.50;;
4577;SDS011;2301;47.354;8.528;2023-08-20T13:36:03;3.30;;;2.30;;
4577;SDS011;2301;47.354;8.528;2023-08-20T13:38:30;6.00;;;2.57;;
4577;SDS011;2301;47.354;8.528;2023-08-20T13:40:57;2.87;;;2.23;;
4577;SDS011;2301;47.354;8.528;2023-08-20T13:43:24;2.50;;;2.30;;
4577;SDS011;2301;47.354;8.528;2023-08-20T13:45:51;4.40;;;2.30;;
4577;SDS011;2301;47.354;8.528;2023-08-20T13:48:19;4.93;;;2.20;;
4577;SDS011;2301;47.354;8.528;2023-08-20T13:50:46;4.07;;;2.20;;
4577;SDS011;2301;47.354;8.528;2023-08-20T13:53:13;4.63;;;2.27;;
4577;SDS011;2301;47.354;8.528;2023-08-20T13:55:41;3.53;;;2.40;;
4577;SDS011;2301;47.354;8.528;2023-08-20T13:58:07;2.53;;;2.00;;
4577;SDS011;2301;47.354;8.528;2023-08-20T14:00:34;4.20;;;2.10;;
4577;SDS011;2301;47.354;8.528;2023-08-20T14:03:01;6.10;;;2.37;;
4577;SDS011;2301;47.354;8.528;2023-08-20T14:05:30;10.00;;;2.47;;
4577;SDS011;2301;47.354;8.528;2023-08-20T14:07:57;2.77;;;2.20;;
4577;SDS011;2301;47.354;8.528;2023-08-20T14:10:24;4.67;;;3.07;;
4577;SDS011;2301;47.354;8.528;2023-08-20T14:12:51;3.30;;;2.30;;
4577;SDS011;2301;47.354;8.528;2023-08-20T14:15:18;4.13;;;2.80;;
4577;SDS011;2301;47.354;8.528;2023-08-20T14:17:45;4.90;;;2.30;;
4577;SDS011;2301;47.354;8.528;2023-08-20T14:20:12;6.80;;;2.40;;
4577;SDS011;2301;47.354;8.528;2023-08-20T14:22:40;6.70;;;2.23;;
4577;SDS011;2301;47.354;8.528;2023-08-20T14:25:07;5.87;;;2.63;;
4577;SDS011;2301;47.354;8.528;2023-08-20T14:27:34;3.47;;;2.10;;
4577;SDS011;2301;47.354;8.528;2023-08-20T14:30:01;2.80;;;2.30;;
4577;SDS011;2301;47.354;8.528;2023-08-20T14:32:29;4.20;;;2.47;;
4577;SDS011;2301;47.354;8.528;2023-08-20T14:34:56;2.60;;;2.13;;
4577;SDS011;2301;47.354;8.528;2023-08-20T14:37:23;4.70;;;2.30;;
4577;SDS011;2301;47.354;8.528;2023-08-20T14:39:51;3.90;;;2.30;;
4577;SDS011;2301;47.354;8.528;2023-08-20T14:42:18;4.60;;;2.30;;
4577;SDS011;2301;47.354;8.528;2023-08-20T14:44:45;4.57;;;1.90;;
4577;SDS011;2301;47.354;8.528;2023-08-20T14:47:13;12.80;;;2.40;;
4577;SDS011;2301;47.354;8.528;2023-08-20T14:49:40;3.57;;;2.20;;
4577;SDS011;2301;47.354;8.528;2023-08-20T14:52:06;2.83;;;2.17;;
4577;SDS011;2301;47.354;8.528;2023-08-20T14:54:33;4.20;;;2.27;;
4577;SDS011;2301;47.354;8.528;2023-08-20T14:57:02;9.80;;;2.50;;
4577;SDS011;2301;47.354;8.528;2023-08-20T14:59:29;2.50;;;2.00;;
4577;SDS011;2301;47.354;8.528;2023-08-20T15:01:56;2.33;;;2.13;;
4577;SDS011;2301;47.354;8.528;2023-08-20T15:04:23;6.23;;;2.83;;
4577;SDS011;2301;47.354;8.528;2023-08-20T15:06:50;3.70;;;2.30;;
4577;SDS011;2301;47.354;8.528;2023-08-20T15:09:17;3.40;;;2.50;;
4577;SDS011;2301;47.354;8.528;2023-08-20T15:11:45;2.20;;;1.90;;
4577;SDS011;2301;47.354;8.528;2023-08-20T15:14:14;6.80;;;2.00;;
4577;SDS011;2301;47.354;8.528;2023-08-20T15:16:41;3.33;;;2.00;;
4577;SDS011;2301;47.354;8.528;2023-08-20T15:19:07;5.90;;;2.40;;
4577;SDS011;2301;47.354;8.528;2023-08-20T15:21:34;2.23;;;1.80;;
4577;SDS011;2301;47.354;8.528;2023-08-20T15:24:01;6.90;;;2.50;;
4577;SDS011;2301;47.354;8.528;2023-08-20T15:26:29;5.50;;;2.50;;